Quincy, IL

4:13 PM CST on February 10, 2016 (GMT -0600)
S 28th Street | | Change Station
CLOSE
Current Station
Personal Weather Station
Location: Quincy, IL
Elevation: 610 ft
Nearby Weather Stations

Elev 610 ft 39.91 °N, 91.37 °W | Updated 4 seconds ago

Snow
Snow
21.9 °F
Feels Like 22 °F
N
0.0
Wind Variable Wind from WSW
Gusts 0.0 mph

Today
High -- | Low -- °F
--% Chance of Precip.
Yesterday
High -- | Low -- °F
Precip. -- in
Pressure 30.14 in
Visibility 8.0 miles
Clouds Overcast 5000 ft
Windchill 22 °F
Dew Point 6 °F
Humidity 49%
Rainfall 0.00 in
Snow Depth Not available.
7:04 AM 5:34 PM
Waxing Crescent, 7% visible
METAR KUIN 102154Z AUTO 12003KT 8SM OVC050 M07/M11 A3010 RMK AO2 SNE50 SLP204 P0000 T10721106
Pressure 30.14 in
Visibility 8.0 miles
Clouds Overcast 5000 ft
Windchill 22 °F
Dew Point 6 °F
Humidity 49%
Rainfall 0.00 in
Snow Depth Not available.
7:04 AM 5:34 PM
Waxing Crescent, 7% visible
METAR KUIN 102154Z AUTO 12003KT 8SM OVC050 M07/M11 A3010 RMK AO2 SNE50 SLP204 P0000 T10721106

10-Day Weather Forecast

Almanac

Astronomy

Feb. 10, 2016 Rise Set
Actual Time
Civil Twilight
Nautical Twilight
Astronomical Twilight
Moon
Length of Visible Light
Length of Day
Tomorrow will be .
, % of the Moon is Illuminated

Today's Extremes

State Highs State Lows

Community

WunderPhotos

Upload Photos

1,891,956 photos uploaded!

WunderBlog® & News

Nearby

Air Quality

  Air Quality AQ Index Pollutant
Not available.

Snow Depth

Station Depth Elevation

Earthquake Activity

City Distance Mag. Time & Date
Minimum magnitude displayed is 2.5.

Coastal Water Temperatures

Place Temperature

Stations

Nearby Weather Stations

Station Location Temp. Windchill Dew Point Humidity Wind Precip. Elev Updated Type
                   

Watches & Warnings

There are currently no watches in effect.